Time;durP1;ratioP1;P1;durP2;ratioP2;P2;SDS_P1;SDS_P2;PMS_P1;PMS_P2;Temp;Humidity;BMP_temperature;BMP_pressure;BME280_temperature;BME280_humidity;BME280_pressure;Samples;Min_cycle;Max_cycle;Signal;HPM_P1;HPM_P2
2024/04/10 00:00:39;;;;;;;11.05;3.92;;;;;;;10.64;100.00;97467.56;5103994;28;20042;-73
2024/04/10 00:06:34;;;;;;;6.82;2.92;;;;;;;10.63;100.00;97465.81;5088123;28;20039;-72
2024/04/10 00:09:33;;;;;;;9.60;3.30;;;;;;;10.51;100.00;97469.28;5109116;28;20063;-73
2024/04/10 00:15:41;;;;;;;;;;;;;;;;;;;;;
2024/04/10 00:18:39;;;;;;;9.13;3.13;;;;;;;10.30;100.00;97460.78;5116338;28;20446;-73
2024/04/10 00:21:41;;;;;;;6.18;2.88;;;;;;;10.18;100.00;97461.56;5111069;28;20066;-72
2024/04/10 00:37:33;;;;;;;4.40;2.65;;;;;;;9.85;100.00;97469.75;5034894;28;20413;-73
2024/04/10 00:40:47;;;;;;;;;;;;;;;;;;;;;
2024/04/10 00:56:47;;;;;;;6.50;2.78;;;;;;;9.71;100.00;97470.59;4978028;28;20217;-72
2024/04/10 00:59:38;;;;;;;3.65;2.38;;;;;;;9.71;100.00;97469.75;5031371;28;20068;-72
2024/04/10 01:02:12;;;;;;;3.30;2.40;;;;;;;9.70;100.00;97460.00;5035737;28;20397;-71
2024/04/10 01:05:11;;;;;;;8.00;2.42;;;;;;;9.73;100.00;97470.50;5014513;28;20071;-72
2024/04/10 01:11:51;;;;;;;6.32;2.40;;;;;;;9.69;100.00;97469.81;5046868;28;20096;-72
2024/04/10 01:21:19;;;;;;;;;;;;;;;;;;;;;
2024/04/10 01:24:07;;;;;;;4.65;3.05;;;;;;;9.85;100.00;97464.41;5125774;27;20020;-71
2024/04/10 01:30:25;;;;;;;;;;;;;;;;;;;;;
2024/04/10 01:36:05;;;;;;;7.45;2.95;;;;;;;9.68;100.00;97454.75;5015848;28;20044;-73
2024/04/10 01:39:23;;;;;;;7.85;3.50;;;;;;;9.63;100.00;97456.81;5053956;28;20024;-72
2024/04/10 01:42:47;;;;;;;;;;;;;;;;;;;;;
2024/04/10 01:49:04;;;;;;;5.07;3.03;;;;;;;9.25;100.00;97448.44;5055481;28;20130;-73
2024/04/10 01:52:02;;;;;;;7.72;2.92;;;;;;;9.06;100.00;97445.09;5012272;28;20427;-71
2024/04/10 01:54:57;;;;;;;5.00;2.78;;;;;;;8.98;100.00;97444.66;5054513;28;20052;-71
2024/04/10 01:57:45;;;;;;;4.13;2.42;;;;;;;8.89;100.00;97447.03;5068182;28;20093;-71
2024/04/10 02:00:39;;;;;;;6.68;2.67;;;;;;;8.73;100.00;97443.50;5042169;28;20044;-71
2024/04/10 02:03:50;;;;;;;5.53;2.78;;;;;;;8.61;100.00;97450.38;5047106;28;20043;-71
2024/04/10 02:09:38;;;;;;;7.65;2.70;;;;;;;8.52;100.00;97435.72;5060848;28;20067;-73
2024/04/10 02:12:28;;;;;;;;;;;;;;;;;;;;;
2024/04/10 02:15:21;;;;;;;5.65;2.47;;;;;;;8.56;100.00;97447.09;5071983;28;20419;-72
2024/04/10 02:21:28;;;;;;;6.63;2.90;;;;;;;8.59;100.00;97433.59;5062204;28;20085;-74
2024/04/10 02:25:32;;;;;;;;;;;;;;;;;;;;;
2024/04/10 02:28:00;;;;;;;9.13;3.00;;;;;;;8.70;100.00;97455.19;5065402;28;20083;-73
2024/04/10 02:31:11;;;;;;;;;;;;;;;;;;;;;
2024/04/10 02:37:24;;;;;;;;;;;;;;;;;;;;;
2024/04/10 02:43:44;;;;;;;9.00;3.65;;;;;;;8.51;100.00;97462.50;5042546;28;20206;-72
2024/04/10 02:47:11;;;;;;;;;;;;;;;;;;;;;
2024/04/10 02:50:26;;;;;;;6.63;3.85;;;;;;;8.51;100.00;97474.00;5046559;28;20037;-72
2024/04/10 02:56:39;;;;;;;7.28;3.55;;;;;;;8.33;100.00;97468.81;5060499;28;20075;-74
2024/04/10 02:59:33;;;;;;;13.40;4.55;;;;;;;8.27;100.00;97463.78;5052705;28;20042;-73
2024/04/10 03:02:32;;;;;;;;;;;;;;;;;;;;;
2024/04/10 03:05:30;;;;;;;17.77;4.95;;;;;;;8.18;100.00;97459.84;5054446;28;20063;-72
2024/04/10 03:08:49;;;;;;;23.45;5.93;;;;;;;8.16;100.00;97465.22;5066755;28;20024;-72
2024/04/10 03:11:32;;;;;;;25.75;7.10;;;;;;;8.23;100.00;97460.44;5044462;28;20043;-73
2024/04/10 03:17:58;;;;;;;9.50;3.47;;;;;;;8.17;100.00;97461.63;5055511;28;20048;-73
2024/04/10 03:21:16;;;;;;;;;;;;;;;;;;;;;
2024/04/10 03:24:13;;;;;;;11.15;4.78;;;;;;;8.02;100.00;97472.25;5069416;28;20020;-73
2024/04/10 03:26:53;;;;;;;13.82;4.80;;;;;;;7.88;100.00;97469.44;5070677;28;20048;-73
2024/04/10 03:33:39;;;;;;;8.77;3.88;;;;;;;7.85;100.00;97485.56;5069839;28;20095;-72
2024/04/10 03:36:24;;;;;;;4.53;3.15;;;;;;;7.79;100.00;97491.19;4978659;28;20060;-73
2024/04/10 03:42:23;;;;;;;9.30;3.65;;;;;;;7.75;100.00;97485.22;5056749;28;20403;-73
2024/04/10 03:45:47;;;;;;;9.90;3.58;;;;;;;7.72;100.00;97495.97;5053177;28;20036;-73
2024/04/10 03:48:37;;;;;;;6.03;3.35;;;;;;;7.70;100.00;97489.88;5037384;28;20032;-73
2024/04/10 03:51:20;;;;;;;8.18;3.20;;;;;;;7.72;100.00;97492.47;5046371;28;20036;-74
2024/04/10 03:54:36;;;;;;;;;;;;;;;;;;;;;
2024/04/10 03:57:42;;;;;;;6.65;2.63;;;;;;;7.66;100.00;97490.97;5033216;28;20037;-72
2024/04/10 04:00:32;;;;;;;;;;;;;;;;;;;;;
2024/04/10 04:03:21;;;;;;;;;;;;;;;;;;;;;
2024/04/10 04:06:26;;;;;;;;;;;;;;;;;;;;;
2024/04/10 04:09:44;;;;;;;;;;;;;;;;;;;;;
2024/04/10 04:16:33;;;;;;;20.20;5.03;;;;;;;7.94;100.00;97512.56;5062471;28;20053;-72
2024/04/10 04:22:43;;;;;;;;;;;;;;;;;;;;;
2024/04/10 04:29:15;;;;;;;;;;;;;;;;;;;;;
2024/04/10 04:32:11;;;;;;;34.13;6.38;;;;;;;8.15;100.00;97531.94;5083257;28;20031;-72
2024/04/10 04:38:03;;;;;;;22.45;5.10;;;;;;;8.33;100.00;97530.13;5080425;28;20039;-72
2024/04/10 04:41:25;;;;;;;;;;;;;;;;;;;;;
2024/04/10 04:44:51;;;;;;;29.05;6.70;;;;;;;8.49;100.00;97541.69;5091265;28;20020;-72
2024/04/10 04:47:33;;;;;;;38.05;5.93;;;;;;;8.45;100.00;97534.78;5090413;28;20035;-72
2024/04/10 04:50:41;;;;;;;23.92;7.53;;;;;;;8.48;100.00;97540.81;5090624;28;20510;-73
2024/04/10 04:53:34;;;;;;;51.45;7.93;;;;;;;8.61;100.00;97546.34;5075724;28;20036;-71
2024/04/10 04:56:41;;;;;;;31.38;7.78;;;;;;;8.83;100.00;97544.22;5088622;28;20028;-73
2024/04/10 04:59:36;;;;;;;37.47;9.02;;;;;;;8.89;100.00;97541.22;5090648;28;20535;-74
2024/04/10 05:03:03;;;;;;;;;;;;;;;;;;;;;
2024/04/10 05:09:17;;;;;;;31.05;8.25;;;;;;;9.45;100.00;97548.69;5095741;28;20135;-73
2024/04/10 05:12:26;;;;;;;34.08;9.68;;;;;;;9.49;100.00;97541.38;5090681;28;20031;-72
2024/04/10 05:15:40;;;;;;;34.97;8.45;;;;;;;9.62;100.00;97545.06;5089016;28;20043;-72
2024/04/10 05:18:46;;;;;;;;;;;;;;;;;;;;;
2024/04/10 05:21:20;;;;;;;21.38;7.55;;;;;;;10.16;100.00;97544.47;5087767;28;20125;-73
2024/04/10 05:33:28;;;;;;;31.27;7.43;;;;;;;11.15;100.00;97541.81;5052749;28;20420;-73
2024/04/10 05:36:33;;;;;;;;;;;;;;;;;;;;;
2024/04/10 05:43:14;;;;;;;18.55;6.05;;;;;;;15.98;100.00;97496.66;5070058;28;20185;-71
2024/04/10 05:46:33;;;;;;;;;;;;;;;;;;;;;
2024/04/10 05:50:07;;;;;;;16.13;6.88;;;;;;;18.31;79.75;97481.03;5069828;28;20032;-71
2024/04/10 05:53:05;;;;;;;15.23;5.85;;;;;;;19.62;67.16;97467.34;5022968;28;20043;-71
2024/04/10 05:55:39;;;;;;;19.98;5.57;;;;;;;20.81;61.19;97458.69;5069274;28;20036;-72
2024/04/10 05:58:41;;;;;;;;;;;;;;;;;;;;;
2024/04/10 06:04:58;;;;;;;;;;;;;;;;;;;;;
2024/04/10 06:08:07;;;;;;;17.48;6.47;;;;;;;21.57;54.93;97463.16;5070271;28;20040;-72
2024/04/10 06:14:18;;;;;;;;;;;;;;;21.89;53.84;97472.47;5056640;28;20037;-72
2024/04/10 06:20:47;;;;;;;;;;;;;;;;;;;;;
2024/04/10 06:23:53;;;;;;;;;;;;;;;;;;;;;
2024/04/10 06:27:12;;;;;;;;;;;;;;;;;;;;;
2024/04/10 06:33:49;;;;;;;12.23;4.32;;;;;;;24.72;46.24;97442.31;5040297;28;20031;-72
2024/04/10 06:36:52;;;;;;;;;;;;;;;;;;;;;
2024/04/10 06:43:01;;;;;;;8.53;3.57;;;;;;;25.22;44.47;97444.38;5114687;27;20418;-73
2024/04/10 06:45:53;;;;;;;15.27;5.85;;;;;;;26.03;43.08;97444.16;5113824;27;20054;-73
2024/04/10 06:49:09;;;;;;;12.10;4.60;;;;;;;26.72;41.85;97433.47;5111380;27;20106;-72
2024/04/10 06:55:50;;;;;;;;;;;;;;;;;;;;;
2024/04/10 06:59:01;;;;;;;;;;;;;;;;;;;;;
2024/04/10 07:05:17;;;;;;;8.48;4.50;;;;;;;26.72;40.03;97441.69;5105693;28;20027;-73
2024/04/10 07:08:21;;;;;;;13.88;3.90;;;;;;;27.27;39.14;97438.97;5108663;28;20051;-72
2024/04/10 07:11:38;;;;;;;5.63;2.97;;;;;;;27.18;38.84;97431.94;5117314;27;20035;-73
2024/04/10 07:20:49;;;;;;;4.10;2.67;;;;;;;27.75;37.60;97433.50;5116236;27;20475;-73
2024/04/10 07:26:49;;;;;;;4.35;2.35;;;;;;;28.55;36.36;97440.94;5071801;28;20418;-73
2024/04/10 07:29:59;;;;;;;8.90;3.80;;;;;;;28.08;37.34;97447.41;5108037;28;20055;-73
2024/04/10 07:36:37;;;;;;;3.13;2.55;;;;;;;30.99;33.85;97429.69;5072987;28;20047;-73
2024/04/10 07:39:30;;;;;;;6.40;2.85;;;;;;;31.04;33.12;97429.84;5065725;28;20044;-73
2024/04/10 07:42:19;;;;;;;4.13;3.03;;;;;;;32.16;32.46;97434.97;5049523;28;20545;-73
2024/04/10 07:57:44;;;;;;;13.23;2.92;;;;;;;33.79;29.74;97433.31;4979521;28;20457;-73
2024/04/10 08:04:11;;;;;;;6.22;2.28;;;;;;;33.64;28.55;97423.81;5060832;28;20061;-73
2024/04/10 08:10:05;;;;;;;10.20;3.13;;;;;;;32.55;29.54;97429.94;5125049;28;20426;-72
2024/04/10 08:16:15;;;;;;;24.75;4.70;;;;;;;33.19;29.82;97432.75;5102248;28;20051;-73
2024/04/10 08:19:23;;;;;;;36.15;5.95;;;;;;;33.60;29.36;97433.72;5107071;28;20036;-72
2024/04/10 08:22:15;;;;;;;18.60;5.38;;;;;;;33.45;29.54;97431.41;5110491;28;20127;-72
2024/04/10 08:25:15;;;;;;;;;;;;;;;;;;;;;
2024/04/10 08:28:20;;;;;;;7.95;3.67;;;;;;;33.59;29.32;97427.34;5069723;28;20475;-72
2024/04/10 08:34:46;;;;;;;5.03;2.58;;;;;;;34.13;28.00;97427.94;5094581;28;20521;-72
2024/04/10 08:37:55;;;;;;;8.70;2.00;;;;;;;33.88;28.26;97421.81;5110606;28;20046;-72
2024/04/10 08:43:31;;;;;;;;;;;;;;;;;;;;;
2024/04/10 08:50:00;;;;;;;7.55;2.35;;;;;;;33.81;28.69;97435.03;5104592;28;20529;-72
2024/04/10 08:52:54;;;;;;;4.53;2.75;;;;;;;33.94;28.29;97429.19;5113985;28;20028;-73
2024/04/10 08:55:41;;;;;;;2.05;1.85;;;;;;;33.22;28.34;97428.66;5095553;28;20042;-71
2024/04/10 08:58:33;;;;;;;6.38;2.03;;;;;;;32.55;29.60;97430.78;5079739;28;20474;-72
2024/04/10 09:01:33;;;;;;;3.97;2.10;;;;;;;34.04;28.45;97423.84;5113828;28;20020;-73
2024/04/10 09:04:26;;;;;;;;;;;;;;;;;;;;;
2024/04/10 09:08:13;;;;;;;;;;;;;;;;;;;;;
2024/04/10 09:11:07;;;;;;;5.47;2.00;;;;;;;35.92;26.57;97421.28;5113508;28;20034;-73
2024/04/10 09:14:22;;;;;;;3.47;2.22;;;;;;;36.76;26.10;97411.38;5094956;27;20035;-72
2024/04/10 09:17:26;;;;;;;5.80;2.00;;;;;;;34.87;27.64;97412.97;5070572;28;20040;-72
2024/04/10 09:20:31;;;;;;;3.75;2.05;;;;;;;36.46;26.23;97413.00;5082799;27;20042;-73
2024/04/10 09:23:11;;;;;;;3.42;1.90;;;;;;;35.55;25.80;97401.53;5110090;27;20039;-72
2024/04/10 09:26:17;;;;;;;2.55;2.17;;;;;;;34.82;27.03;97408.16;5114008;27;20387;-72
2024/04/10 09:32:28;;;;;;;17.25;4.53;;;;;;;35.08;26.95;97409.41;5095321;28;20052;-73
2024/04/10 09:38:41;;;;;;;;;;;;;;;;;;;;;
2024/04/10 09:42:10;;;;;;;5.85;2.13;;;;;;;36.01;26.23;97403.00;5095918;28;20278;-73
2024/04/10 09:48:30;;;;;;;2.40;1.85;;;;;;;36.51;25.97;97407.50;5078808;28;20062;-73
2024/04/10 09:51:44;;;;;;;;;;;;;;;;;;;;;
2024/04/10 09:54:30;;;;;;;4.03;1.75;;;;;;;37.34;25.02;97396.56;5035230;28;20463;-73
2024/04/10 10:11:06;;;;;;;;;;;;;;;;;;;;;
2024/04/10 10:14:30;;;;;;;;;;;;;;;;;;;;;
2024/04/10 10:21:22;;;;;;;3.67;1.92;;;;;;;36.89;24.48;97374.69;5049668;28;20029;-73
2024/04/10 10:24:18;;;;;;;;;;;;;;;38.05;23.70;97373.78;5049651;28;20408;-73
2024/04/10 10:27:26;;;;;;;2.33;1.65;;;;;;;38.73;22.62;97367.78;5053146;28;20010;-73
2024/04/10 10:30:29;;;;;;;1.70;1.60;;;;;;;37.85;22.53;97355.78;5106454;28;20104;-73
2024/04/10 10:33:56;;;;;;;3.28;1.92;;;;;;;38.18;22.18;97345.31;5008680;28;20129;-72
2024/04/10 10:37:12;;;;;;;;;;;;;;;;;;;;;
2024/04/10 10:43:37;;;;;;;9.07;1.85;;;;;;;36.88;23.10;97342.34;5004347;28;20060;-73
2024/04/10 10:46:38;;;;;;;2.22;1.48;;;;;;;37.87;22.96;97353.56;5009804;28;20040;-73
2024/04/10 10:49:32;;;;;;;;;;;;;;;36.56;23.59;97349.00;5054469;28;20039;-73
2024/04/10 10:52:34;;;;;;;1.73;1.63;;;;;;;38.16;22.46;97359.56;5111830;28;19934;-74
2024/04/10 10:55:25;;;;;;;3.13;1.45;;;;;;;38.53;21.93;97342.59;5077109;28;20393;-73
2024/04/10 10:58:24;;;;;;;7.55;1.85;;;;;;;38.93;21.76;97345.44;5094962;28;20035;-73
2024/04/10 11:01:29;;;;;;;3.00;1.65;;;;;;;39.85;20.80;97346.94;5111621;27;20037;-72
2024/04/10 11:04:43;;;;;;;1.48;1.38;;;;;;;39.75;20.87;97343.38;5087643;28;20036;-73
2024/04/10 11:07:47;;;;;;;;;;;;;;;;;;;;;
2024/04/10 11:10:54;;;;;;;1.35;1.20;;;;;;;38.56;20.87;97342.03;5115566;27;20027;-73
2024/04/10 11:13:23;;;;;;;2.63;1.33;;;;;;;37.46;21.77;97343.31;5130598;27;20108;-72
2024/04/10 11:19:24;;;;;;;1.83;1.35;;;;;;;37.88;21.73;97346.03;5131630;27;21645;-72
2024/04/10 11:22:39;;;;;;;1.25;1.15;;;;;;;39.10;20.84;97344.31;5115579;27;20027;-74
2024/04/10 11:35:33;;;;;;;;;;;;;;;;;;;;;
2024/04/10 11:38:24;;;;;;;2.85;1.40;;;;;;;38.33;21.07;97332.19;5101658;28;20030;-72
2024/04/10 11:41:36;;;;;;;1.83;1.10;;;;;;;38.13;21.92;97339.69;5090876;28;20035;-72
2024/04/10 11:44:32;;;;;;;1.30;1.10;;;;;;;38.84;21.24;97332.28;5090762;28;20410;-72
2024/04/10 11:47:52;;;;;;;2.45;1.65;;;;;;;38.38;21.48;97331.41;5087872;28;20035;-73
2024/04/10 11:50:46;;;;;;;11.82;1.63;;;;;;;39.15;21.19;97333.09;5085451;28;20080;-73
2024/04/10 11:53:59;;;;;;;2.42;1.33;;;;;;;39.09;21.43;97328.63;5090334;28;20032;-73
2024/04/10 11:57:09;;;;;;;;;;;;;;;;;;;;;
2024/04/10 12:00:03;;;;;;;1.85;1.20;;;;;;;38.81;21.31;97332.84;5132013;28;20029;-73
2024/04/10 12:03:29;;;;;;;;;;;;;;;;;;;;;
2024/04/10 12:09:49;;;;;;;;;;;;;;;;;;;;;
2024/04/10 12:12:25;;;;;;;4.13;2.40;;;;;;;37.66;22.55;97323.00;5110937;28;20030;-73
2024/04/10 12:15:22;;;;;;;;;;;;;;;;;;;;;
2024/04/10 12:18:36;;;;;;;;;;;;;;;;;;;;;
2024/04/10 12:21:43;;;;;;;;;;;;;;;;;;;;;
2024/04/10 12:24:36;;;;;;;;;;;;;;;;;;;;;
2024/04/10 12:27:46;;;;;;;5.13;1.77;;;;;;;38.04;22.65;97319.84;5097478;28;20039;-73
2024/04/10 12:34:13;;;;;;;2.55;1.65;;;;;;;38.60;22.47;97320.81;5097450;27;20058;-72
2024/04/10 12:40:38;;;;;;;;;;;;;;;;;;;;;
2024/04/10 12:43:37;;;;;;;5.35;1.60;;;;;;;37.17;23.27;97316.88;5114758;28;20467;-72
2024/04/10 12:46:15;;;;;;;3.35;1.92;;;;;;;36.91;23.06;97313.06;5097050;28;20024;-74
2024/04/10 12:56:18;;;;;;;2.00;1.60;;;;;;;37.56;22.57;97326.63;5091120;28;20039;-71
2024/04/10 12:59:14;;;;;;;3.35;1.50;;;;;;;34.67;24.31;97318.94;5064016;27;20042;-73
2024/04/10 13:02:06;;;;;;;4.28;1.50;;;;;;;34.94;24.17;97321.88;5105826;27;20513;-71
2024/04/10 13:05:05;;;;;;;;;;;;;;;;;;;;;
2024/04/10 13:08:03;;;;;;;3.35;2.17;;;;;;;35.55;24.06;97331.94;5116642;27;20035;-73
2024/04/10 13:11:08;;;;;;;2.95;1.50;;;;;;;36.12;23.38;97332.38;5057626;28;20077;-74
2024/04/10 13:14:07;;;;;;;6.88;1.90;;;;;;;36.54;23.44;97335.34;5095201;28;20073;-73
2024/04/10 13:16:55;;;;;;;8.48;2.15;;;;;;;36.60;23.22;97339.88;5062574;28;20065;-73
2024/04/10 13:19:59;;;;;;;3.13;2.65;;;;;;;37.09;22.85;97331.34;5113606;28;20440;-73
2024/04/10 13:22:36;;;;;;;2.65;1.80;;;;;;;35.75;23.68;97346.13;5096665;28;20408;-73
2024/04/10 13:25:37;;;;;;;2.22;1.70;;;;;;;36.70;23.46;97342.72;5109750;28;20031;-72
2024/04/10 13:28:50;;;;;;;5.30;1.98;;;;;;;36.73;23.06;97344.97;5113726;28;20403;-73
2024/04/10 13:32:11;;;;;;;5.85;1.70;;;;;;;35.91;23.33;97347.16;5094830;28;20036;-72
2024/04/10 13:35:12;;;;;;;;;;;;;;;;;;;;;
2024/04/10 13:37:54;;;;;;;7.33;2.33;;;;;;;35.84;23.88;97344.56;5095591;28;20027;-73
2024/04/10 13:40:42;;;;;;;8.35;5.10;;;;;;;35.23;24.35;97339.28;5110026;28;20035;-72
2024/04/10 13:43:26;;;;;;;4.80;1.60;;;;;;;34.60;24.22;97343.28;5096087;28;20405;-74
2024/04/10 13:49:44;;;;;;;7.40;2.08;;;;;;;35.10;24.73;97339.66;5074614;28;20047;-73
2024/04/10 13:52:38;;;;;;;;;;;;;;;;;;;;;
2024/04/10 13:55:59;;;;;;;19.65;4.18;;;;;;;34.00;25.10;97344.88;5119491;27;20023;-74
2024/04/10 13:59:02;;;;;;;5.28;1.73;;;;;;;34.57;24.62;97340.13;5126997;27;20043;-72
2024/04/10 14:02:15;;;;;;;3.65;2.20;;;;;;;34.75;25.27;97351.03;5101203;27;20126;-72
2024/04/10 14:04:53;;;;;;;;;;;;;;;34.02;25.35;97351.91;5133749;27;20019;-72
2024/04/10 14:10:48;;;;;;;5.10;2.25;;;;;;;33.40;25.68;97350.00;5109124;27;20042;-73
2024/04/10 14:13:35;;;;;;;;;;;;;;;;;;;;;
2024/04/10 14:17:08;;;;;;;;;;;;;;;;;;;;;
2024/04/10 14:20:18;;;;;;;7.55;1.55;;;;;;;32.74;26.16;97353.97;5112594;28;20394;-73
2024/04/10 14:22:53;;;;;;;4.55;1.90;;;;;;;31.67;27.06;97354.94;5032761;28;20043;-73
2024/04/10 14:26:01;;;;;;;6.18;2.47;;;;;;;30.69;28.14;97361.50;5094726;28;20029;-72
2024/04/10 14:35:06;;;;;;;10.45;2.15;;;;;;;28.54;30.29;97374.03;5111971;28;20043;-73
2024/04/10 14:38:12;;;;;;;5.05;2.38;;;;;;;27.82;31.34;97385.75;5094397;28;20038;-71
2024/04/10 14:40:51;;;;;;;3.58;1.48;;;;;;;27.41;31.89;97387.66;5112224;28;20028;-72
2024/04/10 14:44:07;;;;;;;4.47;1.95;;;;;;;27.07;31.82;97391.28;5077272;28;20120;-71
2024/04/10 14:50:39;;;;;;;2.60;2.00;;;;;;;26.75;32.48;97405.63;5075878;28;20454;-72
2024/04/10 14:53:53;;;;;;;6.90;2.77;;;;;;;26.48;33.13;97409.19;5109386;28;20636;-72
2024/04/10 15:00:03;;;;;;;25.23;13.20;;;;;;;26.23;34.12;97401.38;5009035;28;20163;-71
2024/04/10 15:03:19;;;;;;;;;;;;;;;;;;;;;
2024/04/10 15:06:36;;;;;;;4.30;1.45;;;;;;;25.93;33.96;97412.63;5093213;28;20028;-72
2024/04/10 15:09:15;;;;;;;7.68;2.00;;;;;;;25.87;33.72;97411.53;5109391;28;20412;-73
2024/04/10 15:15:59;;;;;;;;;;;;;;;;;;;;;
2024/04/10 15:18:53;;;;;;;5.15;1.90;;;;;;;25.53;34.78;97425.03;5094935;28;20031;-72
2024/04/10 15:21:47;;;;;;;3.42;1.98;;;;;;;25.48;34.82;97421.94;5111565;28;20172;-72
2024/04/10 15:25:04;;;;;;;4.25;2.67;;;;;;;25.31;34.89;97424.94;5111047;28;20031;-72
2024/04/10 15:28:34;;;;;;;2.88;2.15;;;;;;;25.06;35.59;97428.13;5111352;28;20027;-72
2024/04/10 15:31:25;;;;;;;6.15;2.47;;;;;;;24.95;35.79;97426.69;5090425;28;20506;-72
2024/04/10 15:37:57;;;;;;;7.38;2.55;;;;;;;24.84;36.00;97440.00;5123007;27;20074;-75
2024/04/10 15:48:16;;;;;;;2.63;2.03;;;;;;;24.49;36.41;97439.59;5130949;27;20076;-73
2024/04/10 15:51:09;;;;;;;2.90;1.73;;;;;;;24.32;36.87;97456.34;5124948;27;20039;-72
2024/04/10 15:54:07;;;;;;;8.40;1.52;;;;;;;24.22;36.75;97462.06;5102564;28;20031;-72
2024/04/10 15:57:19;;;;;;;2.50;1.52;;;;;;;24.07;37.13;97463.84;5074494;28;20051;-73
2024/04/10 16:04:06;;;;;;;;;;;;;;;;;;;;;
2024/04/10 16:07:05;;;;;;;;;;;;;;;;;;;;;
2024/04/10 16:09:53;;;;;;;3.33;1.88;;;;;;;23.62;37.32;97475.56;5068500;28;20044;-73
2024/04/10 16:12:53;;;;;;;4.60;2.35;;;;;;;23.48;37.77;97477.13;5067762;28;20125;-73
2024/04/10 16:19:09;;;;;;;3.92;2.10;;;;;;;23.18;38.95;97472.44;5088462;28;20410;-72
2024/04/10 16:22:19;;;;;;;2.97;1.67;;;;;;;23.07;38.44;97483.75;5114386;28;20025;-72
2024/04/10 16:25:17;;;;;;;8.57;3.10;;;;;;;22.93;38.76;97473.53;5107547;28;20015;-72
2024/04/10 16:28:38;;;;;;;;;;;;;;;;;;;;;
2024/04/10 16:31:52;;;;;;;1.92;1.50;;;;;;;22.71;39.38;97496.91;5063572;28;20049;-73
2024/04/10 16:34:40;;;;;;;3.90;2.05;;;;;;;22.60;39.14;97502.69;5033669;28;20044;-72
2024/04/10 16:37:18;;;;;;;;;;;;;;;;;;;;;
2024/04/10 16:40:04;;;;;;;4.38;1.58;;;;;;;22.41;40.14;97512.06;5070046;28;20089;-71
2024/04/10 16:43:13;;;;;;;;;;;;;;;;;;;;;
2024/04/10 16:46:22;;;;;;;2.30;1.70;;;;;;;22.19;40.42;97523.63;5054289;28;20025;-71
2024/04/10 16:52:11;;;;;;;6.07;2.20;;;;;;;21.83;41.68;97544.78;5033269;28;20123;-72
2024/04/10 16:55:06;;;;;;;;;;;;;;;;;;;;;
2024/04/10 17:01:36;;;;;;;7.07;3.20;;;;;;;21.51;42.37;97553.66;5070083;28;20343;-72
2024/04/10 17:04:51;;;;;;;6.68;2.28;;;;;;;21.33;42.85;97563.78;5063718;28;20032;-71
2024/04/10 17:07:36;;;;;;;8.50;3.10;;;;;;;21.25;43.39;97576.50;5025001;28;20048;-71
2024/04/10 17:11:07;;;;;;;10.40;2.40;;;;;;;21.10;43.33;97573.50;5054228;28;20025;-72
2024/04/10 17:14:06;;;;;;;5.20;2.30;;;;;;;20.96;43.64;97577.63;5072498;28;20041;-72
2024/04/10 17:16:50;;;;;;;13.98;2.50;;;;;;;20.87;44.21;97578.56;5073219;28;20496;-72
2024/04/10 17:23:01;;;;;;;10.32;3.75;;;;;;;20.67;45.85;97595.22;5073285;28;20063;-71
2024/04/10 17:26:28;;;;;;;6.75;2.65;;;;;;;20.57;45.17;97603.47;5073166;28;20024;-74
2024/04/10 17:29:28;;;;;;;;;;;;;;;;;;;;;
2024/04/10 17:32:36;;;;;;;;;;;;;;;;;;;;;
2024/04/10 17:35:13;;;;;;;15.05;4.88;;;;;;;20.08;52.93;97629.25;5077099;28;20024;-72
2024/04/10 17:37:59;;;;;;;9.93;4.10;;;;;;;19.89;54.58;97643.78;5087469;28;20117;-74
2024/04/10 17:41:07;;;;;;;14.52;5.60;;;;;;;19.67;56.57;97644.16;5083112;28;20039;-72
2024/04/10 17:44:20;;;;;;;12.23;4.88;;;;;;;19.51;59.23;97653.91;5074075;28;20461;-73
2024/04/10 17:47:48;;;;;;;12.40;6.30;;;;;;;19.23;62.13;97658.38;5072486;28;20040;-72
2024/04/10 17:50:51;;;;;;;9.43;3.85;;;;;;;19.10;61.11;97669.56;5067759;28;20506;-71
2024/04/10 17:57:16;;;;;;;10.93;4.45;;;;;;;18.90;63.46;97684.13;5086735;28;20051;-72
2024/04/10 18:03:09;;;;;;;4.65;2.75;;;;;;;18.73;64.58;97696.53;5069464;28;20442;-73
2024/04/10 18:06:13;;;;;;;8.23;3.47;;;;;;;18.63;64.66;97703.81;5075311;28;20085;-73
2024/04/10 18:09:02;;;;;;;6.85;3.03;;;;;;;18.52;66.91;97703.91;5058848;28;20040;-73
2024/04/10 18:12:20;;;;;;;9.90;2.78;;;;;;;18.36;68.44;97706.28;5092659;28;20446;-72
2024/04/10 18:15:55;;;;;;;10.75;3.70;;;;;;;18.26;68.91;97718.94;5091192;28;20035;-72
2024/04/10 18:18:56;;;;;;;10.18;3.67;;;;;;;18.11;70.13;97720.31;5079439;28;20483;-72
2024/04/10 18:25:12;;;;;;;;;;;;;;;;;;;;;
2024/04/10 18:28:49;;;;;;;;;;;;;;;;;;;;;
2024/04/10 18:32:14;;;;;;;18.73;4.57;;;;;;;17.80;70.61;97755.53;5091677;28;20448;-75
2024/04/10 18:35:25;;;;;;;11.68;5.25;;;;;;;17.70;73.07;97765.44;5086246;28;20036;-73
2024/04/10 18:38:12;;;;;;;11.70;4.72;;;;;;;17.60;73.84;97764.50;5073293;28;20039;-76
2024/04/10 18:42:19;;;;;;;;;;;;;;;;;;;;;
2024/04/10 18:44:56;;;;;;;8.13;4.50;;;;;;;17.49;73.30;97777.22;4988920;28;20407;-78
2024/04/10 18:47:55;;;;;;;8.00;3.10;;;;;;;17.41;74.45;97782.44;5048514;28;20045;-77
2024/04/10 18:51:29;;;;;;;7.82;3.90;;;;;;;17.19;82.85;97786.13;5065163;28;20032;-77
2024/04/10 19:00:22;;;;;;;15.45;6.18;;;;;;;16.98;86.97;97794.16;5091102;28;20035;-76
2024/04/10 19:03:46;;;;;;;6.10;4.20;;;;;;;16.88;85.54;97797.78;5091228;28;20089;-76
2024/04/10 19:07:04;;;;;;;;;;;;;;;16.79;86.76;97802.13;5066712;28;20047;-77
2024/04/10 19:13:13;;;;;;;10.55;3.60;;;;;;;16.44;90.07;97807.69;5054761;28;20442;-76
2024/04/10 19:16:31;;;;;;;17.05;4.22;;;;;;;16.34;93.75;97820.19;5054528;28;20083;-76
2024/04/10 19:19:42;;;;;;;;;;;;;;;;;;;;;
2024/04/10 19:22:39;;;;;;;10.55;2.58;;;;;;;16.11;96.77;97829.28;5069738;28;20035;-77
2024/04/10 19:25:53;;;;;;;7.18;3.00;;;;;;;15.91;100.00;97838.09;5054006;28;20040;-78
2024/04/10 19:28:42;;;;;;;;;;;;;;;15.81;100.00;97835.25;5053183;28;20037;-76
2024/04/10 19:31:35;;;;;;;7.63;2.40;;;;;;;15.62;100.00;97840.38;5065662;28;19924;-73
2024/04/10 19:34:31;;;;;;;10.80;2.47;;;;;;;15.55;100.00;97848.09;5093064;28;20057;-73
2024/04/10 19:37:06;;;;;;;7.63;2.60;;;;;;;15.51;100.00;97848.44;5093601;28;20406;-75
2024/04/10 19:40:17;;;;;;;8.35;2.92;;;;;;;15.41;100.00;97845.53;5072723;28;20399;-76
2024/04/10 19:43:32;;;;;;;11.05;3.15;;;;;;;15.47;100.00;97858.59;5090655;28;20106;-79
2024/04/10 19:46:33;;;;;;;9.75;5.30;;;;;;;15.38;100.00;97859.25;5077138;28;20073;-80
2024/04/10 19:50:19;;;;;;;7.40;4.45;;;;;;;15.23;100.00;97855.03;5058161;28;20028;-80
2024/04/10 19:53:20;;;;;;;10.57;4.22;;;;;;;15.17;100.00;97858.19;5084513;28;20123;-83
2024/04/10 19:57:02;;;;;;;;;;;;;;;;;;;;;
2024/04/10 20:06:20;;;;;;;8.07;3.58;;;;;;;14.95;100.00;97879.66;5090946;28;20099;-82
2024/04/10 20:16:02;;;;;;;20.25;4.07;;;;;;;14.82;100.00;97898.56;5015538;28;20045;-81
2024/04/10 20:18:50;;;;;;;;;;;;;;;;;;;;;
2024/04/10 20:21:47;;;;;;;8.30;3.25;;;;;;;14.72;100.00;97910.09;5074628;28;20114;-80
2024/04/10 20:24:47;;;;;;;8.95;3.65;;;;;;;14.65;100.00;97902.47;5031179;28;20408;-84
2024/04/10 20:27:45;;;;;;;10.57;4.00;;;;;;;14.59;100.00;97899.34;5056960;28;20028;-81
2024/04/10 20:30:25;;;;;;;10.82;4.18;;;;;;;14.52;100.00;97901.63;5057179;28;20169;-82
2024/04/10 20:33:07;;;;;;;;;;;;;;;;;;;;;
2024/04/10 20:35:57;;;;;;;;;;;;;;;;;;;;;
2024/04/10 20:39:04;;;;;;;;;;;;;;;;;;;;;
2024/04/10 20:41:39;;;;;;;8.38;3.20;;;;;;;14.20;100.00;97907.56;5074212;28;20042;-80
2024/04/10 20:44:27;;;;;;;4.57;2.85;;;;;;;14.21;100.00;97917.38;5055753;28;20545;-81
2024/04/10 20:47:24;;;;;;;8.20;3.33;;;;;;;14.20;100.00;97921.88;5059110;28;20121;-79
2024/04/10 20:50:21;;;;;;;7.07;2.88;;;;;;;14.12;100.00;97932.28;5051005;28;20043;-82
2024/04/10 20:56:22;;;;;;;;;;;;;;;;;;;;;
2024/04/10 20:59:14;;;;;;;;;;;;;;;;;;;;;
2024/04/10 22:16:00;;;;;;;6.88;2.70;;;;;;;12.47;100.00;98010.47;5089953;28;20042;-76
2024/04/10 22:25:44;;;;;;;5.72;2.17;;;;;;;12.15;100.00;98017.81;5087026;28;20137;-75
2024/04/10 22:28:54;;;;;;;;;;;;;;;;;;;;;
2024/04/10 22:32:11;;;;;;;3.25;2.13;;;;;;;11.86;100.00;98021.38;5088976;28;20052;-76
2024/04/10 22:38:29;;;;;;;;;;;;;;;;;;;;;
2024/04/10 22:41:13;;;;;;;3.80;2.42;;;;;;;11.86;100.00;98021.38;5088765;28;20062;-74
2024/04/10 22:44:52;;;;;;;;;;;;;;;;;;;;;
2024/04/10 22:47:46;;;;;;;4.75;2.38;;;;;;;11.72;100.00;98016.00;5006973;28;20513;-75
2024/04/10 22:50:59;;;;;;;;;;;;;;;;;;;;;
2024/04/10 22:54:13;;;;;;;4.85;1.98;;;;;;;11.71;100.00;98027.66;5006774;28;20065;-75
2024/04/10 23:00:20;;;;;;;4.45;2.33;;;;;;;11.56;100.00;98045.47;5088822;28;20032;-75
2024/04/10 23:03:45;;;;;;;4.55;2.55;;;;;;;11.45;100.00;98045.22;5054681;28;20039;-75
2024/04/10 23:06:33;;;;;;;;;;;;;;;11.36;100.00;98043.91;5089038;28;20131;-76
2024/04/10 23:09:50;;;;;;;8.15;2.28;;;;;;;11.24;100.00;98039.25;5088110;28;20398;-76